Whittier, California
Current Conditions -  °F | °C
As of 11:53 AM on Wednesday 17 Dec 2014 (Local Time) from KFUL Reporting Station
Scattered Clouds Scattered Clouds  
Wind Chill: 64°   Ceiling: Unl
Heat Index: 64°   Visibility: 10mi
Dew Point: 48°   Wind: 3mph
Humidity: 56%   Direction: NA
Pressure: 30.04"   Gusts: NA
Location:  33.98°N, 118.03°W
Report Text: KFUL 171953Z VRB03KT 10SM FEW031 SCT042 18/09 A3004 RMK AO2 SLP170 T01780089
Loading
Personal Weather Stations






























Interactive Weather Map New forecast layout! Learn more

10-Day Weather Forecast

Advertisements
Track Severe Weather on mobile